Time;durP1;ratioP1;P1;durP2;ratioP2;P2;SDS_P1;SDS_P2;PMS_P1;PMS_P2;Temp;Humidity;BMP_temperature;BMP_pressure;BME280_temperature;BME280_humidity;BME280_pressure;Samples;Min_cycle;Max_cycle;Signal;HPM_P1;HPM_P2
2023/12/25 00:02:21;;;;;;;4.13;2.10;;;;;;;;;;5042105;28;20037;-58
2023/12/25 00:04:46;;;;;;;3.05;1.80;;;;;;;;;;5032499;28;20037;-57
2023/12/25 00:07:12;;;;;;;3.03;1.95;;;;;;;;;;5025651;28;20061;-58
2023/12/25 00:09:37;;;;;;;3.60;1.90;;;;;;;;;;5033279;28;20036;-58
2023/12/25 00:12:02;;;;;;;3.33;1.75;;;;;;;;;;5039599;28;20086;-58
2023/12/25 00:14:28;;;;;;;3.72;2.13;;;;;;;;;;5032829;28;20068;-58
2023/12/25 00:16:53;;;;;;;3.17;1.77;;;;;;;;;;5037243;28;20028;-58
2023/12/25 00:19:18;;;;;;;3.28;1.90;;;;;;;;;;5034426;28;20033;-58
2023/12/25 00:21:43;;;;;;;2.97;1.85;;;;;;;;;;5039121;28;20095;-60
2023/12/25 00:24:09;;;;;;;3.13;1.70;;;;;;;;;;5047171;28;20580;-58
2023/12/25 00:26:34;;;;;;;3.40;1.85;;;;;;;;;;5043635;28;20063;-58
2023/12/25 00:28:59;;;;;;;3.40;1.90;;;;;;;;;;5043247;28;20504;-58
2023/12/25 00:31:25;;;;;;;3.78;2.00;;;;;;;;;;5042559;28;20055;-58
2023/12/25 00:33:50;;;;;;;3.80;2.17;;;;;;;;;;5040244;28;20045;-58
2023/12/25 00:36:15;;;;;;;3.80;2.03;;;;;;;;;;5045748;28;20040;-58
2023/12/25 00:38:41;;;;;;;5.10;2.10;;;;;;;;;;5045108;28;20048;-58
2023/12/25 00:41:06;;;;;;;3.05;1.88;;;;;;;;;;5042791;28;20033;-58
2023/12/25 00:43:31;;;;;;;2.85;1.85;;;;;;;;;;5032082;28;20526;-58
2023/12/25 00:45:58;;;;;;;2.90;2.00;;;;;;;;;;5044707;28;20033;-58
2023/12/25 00:48:23;;;;;;;4.68;2.28;;;;;;;;;;5043471;28;20053;-58
2023/12/25 00:50:48;;;;;;;3.70;2.00;;;;;;;;;;5044378;28;20167;-58
2023/12/25 00:53:14;;;;;;;4.45;2.13;;;;;;;;;;5043443;28;20044;-58
2023/12/25 00:55:39;;;;;;;3.55;2.05;;;;;;;;;;5034953;28;20057;-58
2023/12/25 00:58:04;;;;;;;4.68;2.35;;;;;;;;;;5033382;28;20413;-56
2023/12/25 01:00:29;;;;;;;4.22;2.42;;;;;;;;;;5044380;28;20355;-56
2023/12/25 01:02:55;;;;;;;4.20;2.38;;;;;;;;;;5026688;28;20036;-57
2023/12/25 01:05:20;;;;;;;3.83;2.03;;;;;;;;;;5034854;28;20037;-57
2023/12/25 01:07:45;;;;;;;4.15;2.28;;;;;;;;;;5036706;28;20437;-57
2023/12/25 01:10:11;;;;;;;3.85;2.20;;;;;;;;;;5013760;28;20053;-57
2023/12/25 01:12:36;;;;;;;3.67;2.15;;;;;;;;;;5043600;28;20033;-57
2023/12/25 01:15:01;;;;;;;3.83;2.00;;;;;;;;;;5038317;28;20033;-57
2023/12/25 01:17:27;;;;;;;3.58;2.08;;;;;;;;;;5029198;28;20029;-57
2023/12/25 01:19:52;;;;;;;3.58;2.20;;;;;;;;;;5043949;28;20037;-57
2023/12/25 01:22:18;;;;;;;3.95;2.05;;;;;;;;;;5036857;28;20056;-57
2023/12/25 01:24:43;;;;;;;4.28;2.50;;;;;;;;;;5037965;28;20052;-57
2023/12/25 01:27:08;;;;;;;3.97;2.40;;;;;;;;;;5035104;28;20033;-58
2023/12/25 01:29:34;;;;;;;3.83;2.33;;;;;;;;;;5044472;28;20114;-57
2023/12/25 01:31:59;;;;;;;4.80;2.20;;;;;;;;;;5044602;28;20110;-57
2023/12/25 01:34:24;;;;;;;3.65;2.15;;;;;;;;;;5043461;28;20486;-58
2023/12/25 01:36:50;;;;;;;3.40;2.40;;;;;;;;;;5042714;28;20143;-57
2023/12/25 01:39:15;;;;;;;4.20;2.55;;;;;;;;;;5042866;28;20036;-58
2023/12/25 01:41:40;;;;;;;4.07;2.25;;;;;;;;;;5041610;28;20523;-58
2023/12/25 01:44:06;;;;;;;4.00;2.42;;;;;;;;;;5043575;28;20204;-58
2023/12/25 01:46:32;;;;;;;3.60;2.10;;;;;;;;;;5033367;28;20040;-58
2023/12/25 01:48:57;;;;;;;3.88;2.50;;;;;;;;;;5042751;28;20053;-58
2023/12/25 01:51:22;;;;;;;4.20;2.25;;;;;;;;;;5028568;28;20080;-58
2023/12/25 01:53:48;;;;;;;4.22;2.50;;;;;;;;;;5026957;28;20034;-57
2023/12/25 01:56:14;;;;;;;3.95;2.30;;;;;;;;;;5055123;28;20041;-57
2023/12/25 01:58:39;;;;;;;3.97;2.47;;;;;;;;;;5047966;28;20132;-57
2023/12/25 02:01:04;;;;;;;4.13;2.65;;;;;;;;;;5047310;28;20068;-57
2023/12/25 02:03:29;;;;;;;5.18;2.33;;;;;;;;;;5042055;28;20425;-57
2023/12/25 02:05:55;;;;;;;4.15;2.40;;;;;;;;;;5044807;28;20033;-57
2023/12/25 02:08:20;;;;;;;4.22;2.50;;;;;;;;;;5047375;28;20049;-57
2023/12/25 02:10:45;;;;;;;4.35;2.30;;;;;;;;;;5046999;28;20045;-57
2023/12/25 02:13:11;;;;;;;3.65;2.20;;;;;;;;;;5046712;28;20040;-57
2023/12/25 02:15:36;;;;;;;3.83;2.10;;;;;;;;;;5047012;28;20029;-58
2023/12/25 02:18:02;;;;;;;4.22;2.45;;;;;;;;;;5047206;28;20043;-57
2023/12/25 02:20:27;;;;;;;4.00;2.40;;;;;;;;;;5046108;28;20067;-57
2023/12/25 02:22:53;;;;;;;4.55;2.40;;;;;;;;;;5033692;28;20033;-58
2023/12/25 02:25:21;;;;;;;3.20;2.28;;;;;;;;;;5042602;28;20432;-57
2023/12/25 02:27:46;;;;;;;4.82;2.45;;;;;;;;;;5038444;28;20045;-58
2023/12/25 02:30:12;;;;;;;3.85;2.03;;;;;;;;;;5039416;28;20040;-57
2023/12/25 02:32:37;;;;;;;3.65;2.30;;;;;;;;;;5045604;28;20049;-58
2023/12/25 02:35:03;;;;;;;4.30;2.50;;;;;;;;;;5033905;28;20032;-57
2023/12/25 02:37:28;;;;;;;3.33;2.20;;;;;;;;;;5045373;28;20033;-58
2023/12/25 02:39:53;;;;;;;4.07;2.50;;;;;;;;;;5047328;28;20118;-57
2023/12/25 02:42:19;;;;;;;3.85;2.42;;;;;;;;;;5034690;28;20524;-57
2023/12/25 02:44:44;;;;;;;4.10;2.38;;;;;;;;;;5034209;28;20517;-57
2023/12/25 02:47:09;;;;;;;4.15;2.55;;;;;;;;;;5042328;28;20533;-58
2023/12/25 02:49:34;;;;;;;4.28;2.50;;;;;;;;;;5026962;28;20512;-58
2023/12/25 02:52:00;;;;;;;3.75;2.30;;;;;;;;;;5032448;28;20033;-58
2023/12/25 02:54:25;;;;;;;4.95;2.63;;;;;;;;;;5040015;28;20126;-57
2023/12/25 02:56:50;;;;;;;3.45;2.00;;;;;;;;;;5028668;28;20091;-58
2023/12/25 02:59:16;;;;;;;3.92;2.63;;;;;;;;;;5031108;28;20060;-57
2023/12/25 03:01:41;;;;;;;5.25;2.58;;;;;;;;;;5045118;28;20098;-57
2023/12/25 03:04:06;;;;;;;4.70;2.47;;;;;;;;;;5044836;28;20040;-57
2023/12/25 03:06:32;;;;;;;4.93;2.78;;;;;;;;;;5041053;28;20063;-57
2023/12/25 03:08:57;;;;;;;3.50;2.25;;;;;;;;;;5046396;28;20506;-57
2023/12/25 03:11:22;;;;;;;4.40;3.00;;;;;;;;;;5045677;28;20040;-58
2023/12/25 03:13:48;;;;;;;4.07;2.50;;;;;;;;;;5027201;28;20148;-57
2023/12/25 03:16:13;;;;;;;4.00;2.30;;;;;;;;;;5027156;28;20045;-57
2023/12/25 03:18:38;;;;;;;5.13;2.90;;;;;;;;;;5034816;28;20037;-57
2023/12/25 03:21:04;;;;;;;4.38;2.60;;;;;;;;;;5042284;28;20024;-56
2023/12/25 03:23:29;;;;;;;4.38;2.75;;;;;;;;;;5045697;28;20553;-57
2023/12/25 03:25:56;;;;;;;3.95;2.55;;;;;;;;;;5034935;28;20024;-57
2023/12/25 03:28:21;;;;;;;5.07;2.92;;;;;;;;;;5043778;28;20041;-57
2023/12/25 03:30:46;;;;;;;4.05;2.53;;;;;;;;;;5046029;28;20025;-57
2023/12/25 03:33:12;;;;;;;5.25;2.80;;;;;;;;;;5042174;28;20452;-57
2023/12/25 03:35:37;;;;;;;4.05;2.70;;;;;;;;;;5027670;28;20107;-58
2023/12/25 03:38:02;;;;;;;4.93;2.88;;;;;;;;;;5031057;28;20017;-62
2023/12/25 03:40:28;;;;;;;4.05;2.42;;;;;;;;;;5039629;28;20021;-57
2023/12/25 03:42:54;;;;;;;4.13;2.47;;;;;;;;;;5042713;28;20021;-57
2023/12/25 03:45:19;;;;;;;5.53;2.90;;;;;;;;;;5036310;28;20036;-57
2023/12/25 03:47:45;;;;;;;3.60;2.40;;;;;;;;;;5044721;28;20410;-57
2023/12/25 03:50:10;;;;;;;4.05;2.42;;;;;;;;;;5024245;28;20071;-57
2023/12/25 03:52:35;;;;;;;4.35;2.53;;;;;;;;;;5025591;28;20518;-57
2023/12/25 03:55:00;;;;;;;4.85;2.67;;;;;;;;;;5026890;28;20017;-57
2023/12/25 03:57:26;;;;;;;4.25;2.63;;;;;;;;;;5045379;28;20012;-58
2023/12/25 03:59:51;;;;;;;3.40;2.38;;;;;;;;;;5044597;28;20051;-57
2023/12/25 04:02:16;;;;;;;4.82;2.45;;;;;;;;;;5032578;28;20040;-57
2023/12/25 04:04:42;;;;;;;4.15;2.70;;;;;;;;;;5033649;28;20354;-58
2023/12/25 04:07:07;;;;;;;3.78;2.30;;;;;;;;;;5040848;28;21227;-57
2023/12/25 04:09:32;;;;;;;4.32;2.65;;;;;;;;;;5044002;28;20049;-57
2023/12/25 04:11:58;;;;;;;3.83;2.35;;;;;;;;;;5040091;28;20024;-57
2023/12/25 04:14:23;;;;;;;4.32;2.65;;;;;;;;;;5042142;28;20041;-57
2023/12/25 04:16:48;;;;;;;4.15;2.45;;;;;;;;;;5035034;28;20028;-57
2023/12/25 04:19:13;;;;;;;4.80;2.88;;;;;;;;;;5044204;28;20507;-57
2023/12/25 04:21:39;;;;;;;4.53;2.80;;;;;;;;;;5036806;28;20017;-57
2023/12/25 04:24:04;;;;;;;4.30;2.70;;;;;;;;;;5024613;28;20037;-57
2023/12/25 04:26:29;;;;;;;4.28;2.40;;;;;;;;;;5040772;28;20384;-57
2023/12/25 04:28:55;;;;;;;4.50;3.03;;;;;;;;;;5058875;28;20096;-57
2023/12/25 04:31:20;;;;;;;4.03;2.55;;;;;;;;;;5045454;28;20044;-57
2023/12/25 04:33:45;;;;;;;4.38;2.55;;;;;;;;;;5043444;28;20444;-57
2023/12/25 04:36:11;;;;;;;4.45;2.50;;;;;;;;;;5043849;28;20119;-57
2023/12/25 04:38:36;;;;;;;3.88;2.53;;;;;;;;;;5044394;28;20028;-58
2023/12/25 04:41:02;;;;;;;4.43;2.75;;;;;;;;;;5042359;28;20025;-58
2023/12/25 04:43:27;;;;;;;3.53;2.30;;;;;;;;;;5054460;28;20017;-57
2023/12/25 04:45:52;;;;;;;4.55;2.60;;;;;;;;;;5039070;28;20030;-58
2023/12/25 04:48:18;;;;;;;4.47;2.65;;;;;;;;;;5036870;28;20691;-57
2023/12/25 04:50:43;;;;;;;3.83;2.50;;;;;;;;;;5042854;28;20557;-57
2023/12/25 04:53:08;;;;;;;4.25;2.53;;;;;;;;;;5043208;28;20082;-57
2023/12/25 04:55:34;;;;;;;4.05;2.80;;;;;;;;;;5044181;28;20100;-57
2023/12/25 04:57:59;;;;;;;5.40;2.90;;;;;;;;;;5038471;28;20067;-57
2023/12/25 05:00:24;;;;;;;4.25;2.33;;;;;;;;;;5034956;28;20025;-57
2023/12/25 05:02:50;;;;;;;3.95;2.33;;;;;;;;;;5025641;28;20491;-56
2023/12/25 05:05:15;;;;;;;5.35;2.50;;;;;;;;;;5044095;28;20053;-57
2023/12/25 05:07:41;;;;;;;4.22;2.63;;;;;;;;;;5032986;28;20392;-57
2023/12/25 05:10:06;;;;;;;5.47;3.00;;;;;;;;;;5042848;28;20027;-56
2023/12/25 05:12:31;;;;;;;4.80;2.60;;;;;;;;;;5038533;28;20053;-58
2023/12/25 05:14:57;;;;;;;3.20;2.40;;;;;;;;;;5025930;28;20026;-57
2023/12/25 05:17:22;;;;;;;3.80;2.42;;;;;;;;;;5035191;28;20146;-58
2023/12/25 05:19:47;;;;;;;3.83;2.35;;;;;;;;;;5036842;28;20022;-58
2023/12/25 05:22:13;;;;;;;3.50;2.58;;;;;;;;;;5022798;28;20037;-57
2023/12/25 05:24:38;;;;;;;4.15;2.38;;;;;;;;;;5038632;28;20045;-58
2023/12/25 05:27:04;;;;;;;3.63;2.45;;;;;;;;;;5026557;28;20497;-57
2023/12/25 05:29:29;;;;;;;4.30;2.53;;;;;;;;;;5040001;28;20053;-57
2023/12/25 05:31:54;;;;;;;5.15;3.00;;;;;;;;;;5038819;28;20124;-56
2023/12/25 05:34:19;;;;;;;4.43;2.63;;;;;;;;;;5021708;28;20041;-58
2023/12/25 05:36:45;;;;;;;4.45;2.70;;;;;;;;;;5026721;28;22046;-58
2023/12/25 05:39:10;;;;;;;4.15;2.55;;;;;;;;;;5037736;28;20828;-58
2023/12/25 05:41:35;;;;;;;3.20;2.50;;;;;;;;;;5021873;28;20512;-57
2023/12/25 05:44:01;;;;;;;3.70;2.30;;;;;;;;;;5028103;28;20056;-57
2023/12/25 05:46:26;;;;;;;3.35;2.60;;;;;;;;;;5094538;22;20036;-81
2023/12/25 05:48:52;;;;;;;3.60;2.60;;;;;;;;;;5074476;28;20040;-81
2023/12/25 05:51:17;;;;;;;4.00;2.17;;;;;;;;;;5091451;28;20028;-82
2023/12/25 05:53:43;;;;;;;5.22;2.53;;;;;;;;;;5085543;28;20208;-93
2023/12/25 05:56:08;;;;;;;4.50;2.65;;;;;;;;;;5078094;28;20027;-90
2023/12/25 05:58:34;;;;;;;3.90;2.50;;;;;;;;;;5107253;28;20158;-90
2023/12/25 06:01:00;;;;;;;3.90;2.40;;;;;;;;;;5073519;28;20031;-86
2023/12/25 06:03:25;;;;;;;4.35;2.58;;;;;;;;;;5092182;28;20031;-86
2023/12/25 06:05:50;;;;;;;4.82;2.70;;;;;;;;;;5105684;28;20047;-85
2023/12/25 06:08:22;;;;;;;4.32;2.67;;;;;;;;;;5105992;28;20135;-86
2023/12/25 06:10:48;;;;;;;3.80;2.30;;;;;;;;;;5090955;28;20032;-85
2023/12/25 06:13:13;;;;;;;3.60;2.40;;;;;;;;;;5089197;28;20047;-86
2023/12/25 06:15:39;;;;;;;3.75;2.30;;;;;;;;;;5095604;28;20466;-77
2023/12/25 06:18:04;;;;;;;3.97;2.30;;;;;;;;;;5111786;28;20062;-78
2023/12/25 06:20:30;;;;;;;3.67;2.03;;;;;;;;;;5110646;28;20036;-81
2023/12/25 06:22:55;;;;;;;4.47;2.00;;;;;;;;;;5092717;28;20024;-75
2023/12/25 06:25:20;;;;;;;4.50;2.28;;;;;;;;;;5109491;28;20051;-78
2023/12/25 06:27:46;;;;;;;3.13;2.25;;;;;;;;;;5103550;28;20024;-77
2023/12/25 06:30:11;;;;;;;3.97;2.40;;;;;;;;;;5090510;28;21652;-77
2023/12/25 06:32:39;;;;;;;3.70;2.38;;;;;;;;;;5111078;28;20058;-78
2023/12/25 06:35:06;;;;;;;4.20;2.20;;;;;;;;;;5101184;28;20040;-79
2023/12/25 06:37:31;;;;;;;3.85;2.40;;;;;;;;;;5087884;28;20039;-79
2023/12/25 06:39:57;;;;;;;3.38;2.22;;;;;;;;;;5112254;28;20040;-77
2023/12/25 06:42:22;;;;;;;4.00;2.53;;;;;;;;;;5068893;28;20028;-78
2023/12/25 06:44:47;;;;;;;3.47;2.08;;;;;;;;;;5106703;28;20045;-77
2023/12/25 06:47:13;;;;;;;3.80;2.00;;;;;;;;;;5109419;28;20512;-77
2023/12/25 06:49:38;;;;;;;3.60;2.15;;;;;;;;;;5111753;28;20962;-78
2023/12/25 06:52:04;;;;;;;2.50;1.90;;;;;;;;;;5109870;28;20059;-76
2023/12/25 06:54:29;;;;;;;4.78;2.30;;;;;;;;;;5108186;28;20031;-76
2023/12/25 06:56:54;;;;;;;4.13;2.40;;;;;;;;;;5092443;28;20028;-78
2023/12/25 06:59:20;;;;;;;4.10;2.45;;;;;;;;;;5094037;28;20039;-78
2023/12/25 07:01:45;;;;;;;3.35;2.20;;;;;;;;;;5071985;28;20039;-79
2023/12/25 07:04:11;;;;;;;3.95;2.28;;;;;;;;;;5077731;28;20555;-78
2023/12/25 07:06:37;;;;;;;3.00;1.90;;;;;;;;;;5107220;28;20054;-80
2023/12/25 07:09:02;;;;;;;4.40;2.17;;;;;;;;;;5112514;28;20502;-79
2023/12/25 07:11:27;;;;;;;3.97;2.45;;;;;;;;;;5094022;28;20031;-78
2023/12/25 07:13:55;;;;;;;4.05;1.85;;;;;;;;;;5093028;28;20112;-80
2023/12/25 07:16:21;;;;;;;3.78;2.03;;;;;;;;;;5087555;28;20099;-80
2023/12/25 07:18:47;;;;;;;3.53;2.28;;;;;;;;;;5108694;28;20112;-79
2023/12/25 07:21:12;;;;;;;3.17;2.05;;;;;;;;;;5076898;28;20027;-76
2023/12/25 07:23:37;;;;;;;4.03;2.10;;;;;;;;;;5109181;28;20586;-74
2023/12/25 07:26:03;;;;;;;3.55;2.30;;;;;;;;;;5111797;28;20028;-78
2023/12/25 07:28:28;;;;;;;3.78;1.90;;;;;;;;;;5092133;28;20626;-75
2023/12/25 07:30:53;;;;;;;4.05;2.03;;;;;;;;;;5110483;28;20026;-74
2023/12/25 07:33:19;;;;;;;4.78;2.30;;;;;;;;;;5109312;28;20415;-75
2023/12/25 07:35:44;;;;;;;4.20;2.00;;;;;;;;;;5104394;28;20581;-77
2023/12/25 07:38:09;;;;;;;4.10;2.10;;;;;;;;;;5111127;28;20497;-77
2023/12/25 07:40:35;;;;;;;3.42;2.08;;;;;;;;;;5109501;28;20064;-77
2023/12/25 07:43:01;;;;;;;4.18;2.05;;;;;;;;;;5101697;28;20083;-76
2023/12/25 07:45:26;;;;;;;4.75;2.75;;;;;;;;;;5111560;28;20039;-77
2023/12/25 07:47:51;;;;;;;3.95;2.45;;;;;;;;;;5110898;28;20035;-78
2023/12/25 07:50:17;;;;;;;4.50;2.20;;;;;;;;;;5092804;28;20098;-77
2023/12/25 07:52:42;;;;;;;4.00;2.10;;;;;;;;;;5112871;28;20043;-82
2023/12/25 07:55:08;;;;;;;4.43;2.38;;;;;;;;;;5092256;28;20035;-77
2023/12/25 07:57:33;;;;;;;4.90;2.13;;;;;;;;;;5091056;28;20074;-77
2023/12/25 07:59:58;;;;;;;4.93;1.98;;;;;;;;;;5090081;28;20478;-77
2023/12/25 08:02:25;;;;;;;5.57;2.28;;;;;;;;;;5108850;28;20028;-76
2023/12/25 08:04:50;;;;;;;4.35;2.03;;;;;;;;;;5101448;28;20032;-75
2023/12/25 08:07:15;;;;;;;4.28;2.17;;;;;;;;;;5108973;28;20462;-76
2023/12/25 08:09:41;;;;;;;3.17;1.80;;;;;;;;;;5091140;28;20039;-75
2023/12/25 08:12:06;;;;;;;3.20;1.85;;;;;;;;;;5110551;28;20054;-76
2023/12/25 08:14:31;;;;;;;2.97;1.80;;;;;;;;;;5110665;28;20673;-77
2023/12/25 08:16:57;;;;;;;4.13;1.98;;;;;;;;;;5102956;28;20024;-77
2023/12/25 08:19:22;;;;;;;3.90;2.00;;;;;;;;;;5110547;28;20032;-76
2023/12/25 08:21:47;;;;;;;4.07;1.88;;;;;;;;;;5105185;28;20059;-77
2023/12/25 08:24:13;;;;;;;3.78;2.00;;;;;;;;;;5084879;28;20114;-77
2023/12/25 08:26:38;;;;;;;4.40;1.83;;;;;;;;;;5104520;28;20032;-74
2023/12/25 08:29:03;;;;;;;3.80;1.98;;;;;;;;;;5098145;28;20525;-75
2023/12/25 08:31:29;;;;;;;4.55;2.35;;;;;;;;;;5109397;28;20024;-75
2023/12/25 08:33:54;;;;;;;4.13;2.25;;;;;;;;;;5109593;28;20035;-74
2023/12/25 08:36:19;;;;;;;3.38;1.88;;;;;;;;;;5099191;28;20059;-75
2023/12/25 08:38:44;;;;;;;4.07;1.98;;;;;;;;;;5101490;28;20024;-76
2023/12/25 08:41:10;;;;;;;3.85;2.13;;;;;;;;;;5106574;28;20111;-74
2023/12/25 08:43:35;;;;;;;5.57;1.70;;;;;;;;;;5103140;28;20024;-75
2023/12/25 08:46:02;;;;;;;5.68;2.28;;;;;;;;;;5104083;28;20380;-77
2023/12/25 08:48:27;;;;;;;3.88;1.80;;;;;;;;;;5110629;28;20040;-75
2023/12/25 08:50:54;;;;;;;4.38;2.20;;;;;;;;;;5090504;28;20023;-75
2023/12/25 08:53:19;;;;;;;5.15;2.10;;;;;;;;;;5110207;28;20062;-76
2023/12/25 08:55:45;;;;;;;3.80;2.20;;;;;;;;;;5106521;28;20028;-77
2023/12/25 08:58:10;;;;;;;5.43;2.05;;;;;;;;;;5106680;28;20028;-78
2023/12/25 09:00:35;;;;;;;5.50;2.22;;;;;;;;;;5102591;28;20090;-77
2023/12/25 09:03:01;;;;;;;4.22;2.08;;;;;;;;;;5103871;28;20475;-75
2023/12/25 09:05:26;;;;;;;4.70;2.03;;;;;;;;;;5112477;28;20514;-77
2023/12/25 09:07:51;;;;;;;3.47;1.92;;;;;;;;;;5076744;28;20450;-76
2023/12/25 09:10:18;;;;;;;4.65;2.25;;;;;;;;;;5084969;28;20424;-75
2023/12/25 09:12:43;;;;;;;4.45;2.20;;;;;;;;;;5090664;28;20040;-77
2023/12/25 09:15:08;;;;;;;4.40;2.28;;;;;;;;;;5084042;28;20625;-78
2023/12/25 09:17:34;;;;;;;6.63;2.03;;;;;;;;;;5086983;28;20031;-76
2023/12/25 09:19:59;;;;;;;4.47;1.92;;;;;;;;;;5106426;28;20112;-76
2023/12/25 09:22:27;;;;;;;5.85;2.50;;;;;;;;;;5108462;28;20062;-78
2023/12/25 09:24:52;;;;;;;6.60;2.95;;;;;;;;;;5094637;28;20091;-77
2023/12/25 09:27:18;;;;;;;5.00;2.65;;;;;;;;;;5097840;28;20582;-77
2023/12/25 09:29:43;;;;;;;7.13;2.70;;;;;;;;;;5090675;28;20040;-75
2023/12/25 09:32:09;;;;;;;4.72;2.25;;;;;;;;;;5078763;28;20491;-77
2023/12/25 09:34:35;;;;;;;6.22;2.55;;;;;;;;;;5084184;28;20313;-75
2023/12/25 09:37:00;;;;;;;4.25;2.20;;;;;;;;;;5090964;28;20032;-75
2023/12/25 09:39:25;;;;;;;5.10;2.47;;;;;;;;;;5105915;28;20763;-76
2023/12/25 09:41:51;;;;;;;6.57;2.50;;;;;;;;;;5090948;28;20078;-75
2023/12/25 09:44:16;;;;;;;4.47;2.55;;;;;;;;;;5111745;28;20038;-76
2023/12/25 09:46:42;;;;;;;4.25;2.30;;;;;;;;;;5096685;28;20044;-78
2023/12/25 09:49:07;;;;;;;5.13;2.58;;;;;;;;;;5095688;28;20499;-75
2023/12/25 09:51:33;;;;;;;5.20;2.60;;;;;;;;;;5104773;28;20031;-76
2023/12/25 09:53:59;;;;;;;5.70;3.10;;;;;;;;;;5091784;28;20739;-75
2023/12/25 09:56:24;;;;;;;4.15;2.50;;;;;;;;;;5093267;28;20020;-77
2023/12/25 09:58:49;;;;;;;5.60;2.80;;;;;;;;;;5094879;28;20050;-78
2023/12/25 10:01:16;;;;;;;8.95;3.88;;;;;;;;;;5096982;28;20040;-77
2023/12/25 10:03:43;;;;;;;8.70;3.55;;;;;;;;;;5086654;28;20032;-77
2023/12/25 10:06:09;;;;;;;8.52;3.22;;;;;;;;;;5097866;28;20115;-79
2023/12/25 10:08:36;;;;;;;5.43;3.08;;;;;;;;;;5088718;28;20039;-76
2023/12/25 10:11:02;;;;;;;4.95;2.95;;;;;;;;;;5094969;28;20140;-75
2023/12/25 10:13:28;;;;;;;8.90;2.85;;;;;;;;;;5116036;28;20505;-76
2023/12/25 10:15:53;;;;;;;6.30;2.83;;;;;;;;;;5090381;28;20054;-75
2023/12/25 10:18:20;;;;;;;5.22;2.65;;;;;;;;;;5094303;28;20546;-73
2023/12/25 10:20:55;;;;;;;8.38;2.95;;;;;;;;;;5112806;28;20120;-75
2023/12/25 10:23:21;;;;;;;6.60;2.45;;;;;;;;;;5078058;28;20202;-77
2023/12/25 10:25:47;;;;;;;4.85;2.60;;;;;;;;;;5073622;28;20123;-76
2023/12/25 10:28:12;;;;;;;6.07;2.60;;;;;;;;;;5104100;28;20576;-77
2023/12/25 10:30:38;;;;;;;6.95;2.92;;;;;;;;;;5108171;28;20070;-78
2023/12/25 10:33:10;;;;;;;6.20;2.60;;;;;;;;;;5089446;28;20023;-76
2023/12/25 10:35:35;;;;;;;7.72;2.25;;;;;;;;;;5083359;28;20466;-76
2023/12/25 10:38:03;;;;;;;6.20;2.60;;;;;;;;;;5109179;28;20127;-78
2023/12/25 10:40:31;;;;;;;5.65;2.60;;;;;;;;;;5091789;28;20028;-79
2023/12/25 10:42:56;;;;;;;6.78;3.10;;;;;;;;;;5091342;28;20032;-76
2023/12/25 10:45:28;;;;;;;6.55;2.95;;;;;;;;;;5093033;28;20516;-78
2023/12/25 10:47:54;;;;;;;7.47;3.42;;;;;;;;;;5112062;28;20566;-75
2023/12/25 10:50:21;;;;;;;6.28;3.00;;;;;;;;;;5093639;28;20035;-76
2023/12/25 10:52:52;;;;;;;8.88;3.50;;;;;;;;;;5108410;28;20024;-76
2023/12/25 10:55:38;;;;;;;7.22;3.17;;;;;;;;;;5089767;28;20115;-77
2023/12/25 10:58:07;;;;;;;7.82;3.20;;;;;;;;;;5092903;28;20076;-76
2023/12/25 11:00:33;;;;;;;6.97;3.38;;;;;;;;;;5113198;28;20233;-75
2023/12/25 11:03:01;;;;;;;8.23;3.42;;;;;;;;;;5104730;28;20511;-75
2023/12/25 11:05:26;;;;;;;9.98;3.13;;;;;;;;;;5077514;28;20028;-75
2023/12/25 11:07:51;;;;;;;11.98;4.18;;;;;;;;;;5091813;28;20042;-78
2023/12/25 11:10:17;;;;;;;9.82;4.10;;;;;;;;;;5094272;28;20496;-78
2023/12/25 11:12:42;;;;;;;12.20;4.38;;;;;;;;;;5097461;28;20024;-75
2023/12/25 11:15:08;;;;;;;10.00;4.18;;;;;;;;;;5096115;28;20049;-76
2023/12/25 11:17:34;;;;;;;8.70;3.58;;;;;;;;;;5112084;28;20383;-77
2023/12/25 11:20:03;;;;;;;10.68;3.47;;;;;;;;;;5112183;28;20051;-76
2023/12/25 11:22:28;;;;;;;8.20;2.80;;;;;;;;;;5111263;28;20111;-77
2023/12/25 11:24:55;;;;;;;9.35;3.35;;;;;;;;;;5089295;28;20107;-76
2023/12/25 11:27:21;;;;;;;6.78;3.30;;;;;;;;;;5089713;28;20093;-76
2023/12/25 11:29:46;;;;;;;8.20;3.08;;;;;;;;;;5111790;28;20036;-76
2023/12/25 11:32:13;;;;;;;7.07;3.13;;;;;;;;;;5105919;28;20572;-76
2023/12/25 11:34:38;;;;;;;8.10;3.60;;;;;;;;;;5108615;28;20044;-76
2023/12/25 11:37:04;;;;;;;9.15;3.80;;;;;;;;;;5106726;28;20039;-76
2023/12/25 11:39:30;;;;;;;6.82;3.15;;;;;;;;;;5069776;28;20027;-77
2023/12/25 11:41:56;;;;;;;10.27;3.40;;;;;;;;;;5111992;28;20069;-76
2023/12/25 11:44:32;;;;;;;9.65;3.15;;;;;;;;;;5092630;28;20128;-75
2023/12/25 11:47:00;;;;;;;10.30;3.50;;;;;;;;;;5091880;28;20032;-75
2023/12/25 11:49:31;;;;;;;24.98;11.70;;;;;;;;;;5075229;28;20040;-74
2023/12/25 11:51:57;;;;;;;47.72;22.85;;;;;;;;;;5110742;28;20030;-76
2023/12/25 11:54:24;;;;;;;80.30;30.85;;;;;;;;;;5091776;28;20044;-75
2023/12/25 11:56:49;;;;;;;132.27;55.10;;;;;;;;;;5064576;28;20032;-75
2023/12/25 11:59:14;;;;;;;49.60;20.88;;;;;;;;;;5109897;28;20136;-74
2023/12/25 12:01:40;;;;;;;40.28;16.20;;;;;;;;;;5108589;28;20074;-73
2023/12/25 12:04:05;;;;;;;30.75;13.10;;;;;;;;;;5088734;28;20050;-74
2023/12/25 12:06:31;;;;;;;25.15;10.70;;;;;;;;;;5110177;28;20430;-76
2023/12/25 12:08:56;;;;;;;22.88;9.10;;;;;;;;;;5109559;28;20055;-76
2023/12/25 12:11:22;;;;;;;18.05;8.15;;;;;;;;;;5103272;28;20085;-74
2023/12/25 12:13:47;;;;;;;18.98;7.93;;;;;;;;;;5101787;28;20483;-76
2023/12/25 12:16:12;;;;;;;14.55;6.28;;;;;;;;;;5080215;28;20051;-77
2023/12/25 12:18:38;;;;;;;13.65;5.60;;;;;;;;;;5084684;28;20476;-77
2023/12/25 12:21:04;;;;;;;13.15;4.93;;;;;;;;;;5106142;28;20100;-76
2023/12/25 12:23:31;;;;;;;11.88;4.80;;;;;;;;;;5107660;28;20662;-79
2023/12/25 12:25:56;;;;;;;12.38;3.80;;;;;;;;;;5111091;28;20027;-78
2023/12/25 12:28:22;;;;;;;7.85;3.40;;;;;;;;;;5108116;28;20048;-78
2023/12/25 12:30:47;;;;;;;7.55;3.53;;;;;;;;;;5109877;28;20035;-78
2023/12/25 12:33:13;;;;;;;9.68;3.60;;;;;;;;;;5109126;28;20035;-79
2023/12/25 12:35:38;;;;;;;8.27;3.45;;;;;;;;;;5072455;28;20049;-79
2023/12/25 12:38:04;;;;;;;8.15;3.33;;;;;;;;;;5110089;28;20028;-77
2023/12/25 12:40:30;;;;;;;9.00;3.40;;;;;;;;;;5108183;28;20427;-77
2023/12/25 12:42:55;;;;;;;6.00;3.13;;;;;;;;;;5090556;28;20137;-84
2023/12/25 12:45:21;;;;;;;6.65;3.05;;;;;;;;;;5070207;28;20477;-77
2023/12/25 12:47:47;;;;;;;6.70;3.03;;;;;;;;;;5106718;28;20031;-77
2023/12/25 12:50:15;;;;;;;8.18;3.22;;;;;;;;;;5110046;28;20134;-77
2023/12/25 12:52:41;;;;;;;7.28;3.40;;;;;;;;;;5109071;28;20039;-76
2023/12/25 12:55:06;;;;;;;7.63;4.45;;;;;;;;;;5105380;28;20120;-76
2023/12/25 12:57:32;;;;;;;8.75;3.63;;;;;;;;;;5108761;28;20096;-76
2023/12/25 12:59:57;;;;;;;7.70;3.63;;;;;;;;;;5108658;28;20031;-75
2023/12/25 13:02:23;;;;;;;7.38;3.55;;;;;;;;;;5089938;28;20031;-77
2023/12/25 13:04:49;;;;;;;6.97;3.15;;;;;;;;;;5106129;28;20066;-75
2023/12/25 13:07:14;;;;;;;7.10;3.08;;;;;;;;;;5099240;28;20416;-77
2023/12/25 13:09:39;;;;;;;6.88;3.58;;;;;;;;;;5078743;28;20045;-77
2023/12/25 13:12:05;;;;;;;8.27;3.15;;;;;;;;;;5108795;28;20043;-76
2023/12/25 13:14:30;;;;;;;6.93;3.13;;;;;;;;;;5090861;28;20032;-77
2023/12/25 13:16:55;;;;;;;7.60;3.13;;;;;;;;;;5105720;28;20047;-75
2023/12/25 13:19:21;;;;;;;6.95;3.08;;;;;;;;;;5090388;28;20577;-76
2023/12/25 13:21:46;;;;;;;6.72;3.33;;;;;;;;;;5108275;28;20090;-76
2023/12/25 13:24:12;;;;;;;7.00;3.35;;;;;;;;;;5101962;28;20036;-76
2023/12/25 13:26:37;;;;;;;6.57;3.08;;;;;;;;;;5087478;28;20498;-77
2023/12/25 13:29:03;;;;;;;5.93;3.10;;;;;;;;;;5109768;28;20061;-77
2023/12/25 13:31:29;;;;;;;6.93;3.00;;;;;;;;;;5109948;28;20035;-77
2023/12/25 13:33:54;;;;;;;7.07;2.95;;;;;;;;;;5103169;28;20032;-76
2023/12/25 13:36:19;;;;;;;6.88;3.10;;;;;;;;;;5106961;28;20043;-76
2023/12/25 13:38:45;;;;;;;6.95;3.17;;;;;;;;;;5090859;28;20034;-76
2023/12/25 13:41:10;;;;;;;7.90;3.17;;;;;;;;;;5111210;28;20028;-77
2023/12/25 13:43:36;;;;;;;7.20;3.25;;;;;;;;;;5088597;28;20510;-76
2023/12/25 13:46:01;;;;;;;7.32;3.65;;;;;;;;;;5097818;28;20032;-76
2023/12/25 13:48:27;;;;;;;8.05;3.30;;;;;;;;;;5092650;28;20048;-78
2023/12/25 13:50:53;;;;;;;9.82;3.53;;;;;;;;;;5110430;28;20043;-76
2023/12/25 13:53:18;;;;;;;7.70;3.50;;;;;;;;;;5113551;28;20491;-76
2023/12/25 13:55:43;;;;;;;7.93;3.83;;;;;;;;;;5112628;28;20048;-76
2023/12/25 13:58:10;;;;;;;7.43;4.28;;;;;;;;;;5112953;28;20118;-77
2023/12/25 14:00:35;;;;;;;10.05;4.45;;;;;;;;;;5112857;28;20575;-77
2023/12/25 14:03:01;;;;;;;11.18;5.32;;;;;;;;;;5103510;28;20036;-76
2023/12/25 14:05:26;;;;;;;8.32;4.35;;;;;;;;;;5088421;28;20173;-76
2023/12/25 14:07:51;;;;;;;9.50;5.20;;;;;;;;;;5101757;28;20035;-76
2023/12/25 14:10:18;;;;;;;12.38;4.65;;;;;;;;;;5103361;28;20040;-76
2023/12/25 14:12:43;;;;;;;10.02;5.00;;;;;;;;;;5106727;28;20039;-77
2023/12/25 14:15:10;;;;;;;9.45;4.95;;;;;;;;;;5100649;28;20534;-76
2023/12/25 14:17:36;;;;;;;12.00;6.00;;;;;;;;;;5099737;28;20032;-76
2023/12/25 14:20:01;;;;;;;11.55;5.80;;;;;;;;;;5108677;28;20042;-76
2023/12/25 14:22:26;;;;;;;11.65;5.97;;;;;;;;;;5086740;28;20028;-78
2023/12/25 14:24:52;;;;;;;11.13;5.45;;;;;;;;;;5100361;28;20560;-76
2023/12/25 14:27:18;;;;;;;10.75;5.40;;;;;;;;;;5099043;28;20031;-77
2023/12/25 14:29:43;;;;;;;10.40;5.53;;;;;;;;;;5101244;28;20036;-76
2023/12/25 14:32:08;;;;;;;13.00;5.97;;;;;;;;;;5110568;28;20039;-76